Time;durP1;ratioP1;P1;durP2;ratioP2;P2;SDS_P1;SDS_P2;PMS_P1;PMS_P2;Temp;Humidity;BMP_temperature;BMP_pressure;BME280_temperature;BME280_humidity;BME280_pressure;Samples;Min_cycle;Max_cycle;Signal;HPM_P1;HPM_P2
2021/11/25 07:20:44;;;;;;;;;;;;;;;;;;618995;27;2389267;-37
2021/11/25 07:20:56;;;;;;;;;;;;;;;;;;345812;27;83095;-38
2021/11/25 07:21:06;;;;;;;;;;;;;;;;;;343070;28;103567;-46
2021/11/25 07:21:17;;;;;;;;;;;;;;;;;;344008;28;83609;-44
2021/11/25 07:21:28;;;;;;;;;;;;;;;;;;344883;28;101561;-38
2021/11/25 07:21:39;;;;;;;;;;;;;;;;;;346044;28;83460;-39
2021/11/25 07:21:50;;;;;;;;;;;;;;;;;;344120;28;102926;-34
2021/11/25 07:22:01;;;;;;;;;;;;;;;;;;347413;28;83714;-43
2021/11/25 07:22:12;;;;;;;;;;;;;;;;;;346222;28;102777;-37
2021/11/25 07:22:25;;;;;;;;;;;;;;;;;;347528;28;84394;-28
2021/11/25 07:22:38;;;;;;;;;;;;;;;;;;346240;28;103118;-35
2021/11/25 07:22:49;;;;;;;;;;;;;;;;;;346100;28;84373;-31
2021/11/25 07:23:00;;;;;;;;;;;;;;;;;;343471;28;102935;-24
2021/11/25 07:23:11;;;;;;;;;;;;;;;;;;344889;28;83337;-24
2021/11/25 07:23:21;;;;;;;;;;;;;;;;;;344780;28;102712;-21
2021/11/25 07:23:32;;;;;;;;;;;;;;;;;;347590;28;84497;-21
2021/11/25 07:23:43;;;;;;;;;;;;;;;;;;344747;28;102996;-21
2021/11/25 07:23:54;;;;;;;;;;;;;;;;;;344790;28;83992;-21
2021/11/25 07:24:05;;;;;;;;;;;;;;;;;;343412;28;103011;-24
2021/11/25 07:24:16;;;;;;;;;;;;;;;;;;346375;28;82566;-40
2021/11/25 07:24:26;;;;;;;;;;;;;;;;;;344683;28;103185;-21
2021/11/25 07:24:37;;;;;;;;;;;;;;;;;;347553;28;83424;-22
2021/11/25 07:24:48;;;;;;;;;;;;;;;;;;346274;28;102866;-23
2021/11/25 07:24:59;;;;;;;;;;;;;;;;;;346133;28;84498;-23
2021/11/25 07:25:11;;;;;;;;;;;;;;;;;;344755;28;103280;-26
2021/11/25 07:25:24;;;;;;;;;;;;;;;;;;346244;28;84356;-26
2021/11/25 07:25:35;;;;;;;;;;;;;;;;;;346231;28;102920;-26
2021/11/25 07:25:46;;;;;;;;;;;;;;;;;;346265;28;83725;-22
2021/11/25 07:25:57;;;;;;;;;;;;;;;;;;346226;28;103034;-30
2021/11/25 07:26:08;;;;;;;;;;;;;;;;;;346183;28;84681;-42
2021/11/25 07:26:19;;;;;;;;;;;;;;;;;;344845;28;103031;-32
2021/11/25 07:26:30;;;;;;;;;;;;;;;;;;347682;28;84666;-34
2021/11/25 07:26:41;;;;;;;;;;;;;;;;;;343748;28;102496;-52
2021/11/25 07:26:51;;;;;;;;;;;;;;;;;;345360;28;83578;-40
2021/11/25 07:27:03;;;;;;;;;;;;;;;;;;344811;28;102707;-37
2021/11/25 07:27:15;;;;;;;;;;;;;;;;;;346190;28;83361;-30
2021/11/25 07:27:25;;;;;;;;;;;;;;;;;;344981;28;102908;-23
2021/11/25 07:27:36;;;;;;;;;;;;;;;;;;347059;28;82980;-22
2021/11/25 07:27:47;;;;;;;;;;;;;;;;;;348759;27;103258;-21
2021/11/25 07:27:58;;;;;;;;;;;;;;;;;;348824;27;83494;-22
2021/11/25 07:28:09;;;;;;;;;;;;;;;;;;345951;28;102929;-21
2021/11/25 07:28:20;;;;;;;;;;;;;;;;;;346060;28;84232;-23
2021/11/25 07:28:31;;;;;;;;;;;;;;;;;;346075;28;102844;-22
2021/11/25 07:28:42;;;;;;;;;;;;;;;;;;344704;28;84818;-22
2021/11/25 07:28:56;;;;;;;;;;;;;;;;;;344639;28;103300;-22
2021/11/25 07:29:08;;;;;;;;;;;;;;;;;;346093;28;84497;-22
2021/11/25 07:29:19;;;;;;;;;;;;;;;;;;343325;28;103036;-22
2021/11/25 07:29:30;;;;;;;;;;;;;;;;;;344707;28;83888;-23
2021/11/25 07:29:41;;;;;;;;;;;;;;;;;;341966;28;103128;-22
2021/11/25 07:29:52;;;;;;;;;;;;;;;;;;347406;28;83629;-22
2021/11/25 07:30:05;;;;;;;;;;;;;;;;;;343319;28;103174;-22
2021/11/25 07:30:17;;;;;;;;;;;;;;;;;;344691;28;83660;-22
2021/11/25 07:30:28;;;;;;;;;;;;;;;;;;343310;28;103300;-22
2021/11/25 07:30:39;;;;;;;;;;;;;;;;;;346064;28;83693;-22
2021/11/25 07:30:51;;;;;;;;;;;;;;;;;;341995;28;103164;-22
2021/11/25 07:31:03;;;;;;;;;;;;;;;;;;346057;28;82678;-23
2021/11/25 07:31:14;;;;;;;;;;;;;;;;;;344692;28;103325;-22
2021/11/25 07:31:28;;;;;;;;;;;;;;;;;;347611;27;83772;-22
2021/11/25 07:31:40;;;;;;;;;;;;;;;;;;347476;27;102712;-22
2021/11/25 07:31:51;;;;;;;;;;;;;;;;;;344679;28;84794;-22
2021/11/25 07:32:03;;;;;;;;;;;;;;;;;;343318;28;103196;-22
2021/11/25 07:32:14;;;;;;;;;;;;;;;;;;346076;28;84017;-22
2021/11/25 07:32:25;;;;;;;;;;;;;;;;;;343256;28;102944;-22
2021/11/25 07:32:36;;;;;;;;;;;;;;;;;;343324;28;83510;-22
2021/11/25 07:32:48;;;;;;;;;;;;;;;;;;341971;28;102939;-22
2021/11/25 07:32:59;;;;;;;;;;;;;;;;;;344678;28;83753;-22
2021/11/25 07:33:11;;;;;;;;;;;;;;;;;;344696;28;102752;-22
2021/11/25 07:33:22;;;;;;;;;;;;;;;;;;347459;28;83582;-22
2021/11/25 07:33:33;;;;;;;;;;;;;;;;;;343715;28;100218;-22
2021/11/25 07:33:44;;;;;;;;;;;;;;;;;;344682;28;84080;-22
2021/11/25 07:33:56;;;;;;;;;;;;;;;;;;344703;28;102547;-22
2021/11/25 07:34:07;;;;;;;;;;;;;;;;;;344710;28;84347;-22
2021/11/25 07:34:18;;;;;;;;;;;;;;;;;;344666;28;103155;-22
2021/11/25 07:34:31;;;;;;;;;;;;;;;;;;344747;28;82542;-22
2021/11/25 07:34:42;;;;;;;;;;;;;;;;;;343191;28;103151;-22
2021/11/25 07:34:53;;;;;;;;;;;;;;;;;;344649;28;84369;-22
2021/11/25 07:35:06;;;;;;;;;;;;;;;;;;343303;28;102964;-22
2021/11/25 07:35:21;;;;;;;;;;;;;;;;;;344921;28;82677;-22
2021/11/25 07:35:32;;;;;;;;;;;;;;;;;;344747;28;103177;-22
2021/11/25 07:35:46;;;;;;;;;;;;;;;;;;347421;28;84134;-22
2021/11/25 07:35:57;;;;;;;;;;;;;;;;;;346088;28;103293;-22
2021/11/25 07:36:08;;;;;;;;;;;;;;;;;;346046;28;84688;-22
2021/11/25 07:36:19;;;;;;;;;;;;;;;;;;346087;28;103251;-22
2021/11/25 07:36:30;;;;;;;;;;;;;;;;;;344706;28;82470;-22
2021/11/25 07:36:41;;;;;;;;;;;;;;;;;;346101;28;103078;-22
2021/11/25 07:36:52;;;;;;;;;;;;;;;;;;347438;28;84117;-22
2021/11/25 07:37:03;;;;;;;;;;;;;;;;;;343324;28;101627;-22
2021/11/25 07:37:14;;;;;;;;;;;;;;;;;;343344;28;84361;-22
2021/11/25 07:37:26;;;;;;;;;;;;;;;;;;343264;28;102974;-22
2021/11/25 07:37:37;;;;;;;;;;;;;;;;;;347461;28;84549;-22
2021/11/25 07:37:51;;;;;;;;;;;;;;;;;;347450;27;103077;-22
2021/11/25 07:38:03;;;;;;;;;;;;;;;;;;347422;28;84444;-23
2021/11/25 07:38:15;;;;;;;;;;;;;;;;;;343345;28;102913;-23
2021/11/25 07:38:27;;;;;;;;;;;;;;;;;;344737;28;84790;-22
2021/11/25 07:38:38;;;;;;;;;;;;;;;;;;344720;28;102987;-22
2021/11/25 07:38:49;;;;;;;;;;;;;;;;;;345959;28;83547;-22
2021/11/25 07:39:00;;;;;;;;;;;;;;;;;;343324;28;103127;-22
2021/11/25 07:39:10;;;;;;;;;;;;;;;;;;346063;28;83572;-22
2021/11/25 07:39:21;;;;;;;;;;;;;;;;;;341986;28;103037;-22
2021/11/25 07:39:33;;;;;;;;;;;;;;;;;;343357;28;83596;-22
2021/11/25 07:39:44;;;;;;;;;;;;;;;;;;344664;28;102995;-22
2021/11/25 07:39:55;;;;;;;;;;;;;;;;;;346014;28;84410;-22
2021/11/25 07:40:07;;;;;;;;;;;;;;;;;;346056;28;103260;-22
2021/11/25 07:40:20;;;;;;;;;;;;;;;;;;346002;28;84502;-22
2021/11/25 07:40:31;;;;;;;;;;;;;;;;;;347472;27;102968;-22
2021/11/25 07:40:44;;;;;;;;;;;;;;;;;;345893;28;84438;-23
2021/11/25 07:40:55;;;;;;;;;;;;;;;;;;343241;28;103271;-22
2021/11/25 07:41:07;;;;;;;;;;;;;;;;;;347340;28;84164;-23
2021/11/25 07:41:18;;;;;;;;;;;;;;;;;;348954;27;102955;-22
2021/11/25 07:41:31;;;;;;;;;;;;;;;;;;347355;28;85477;-22
2021/11/25 07:41:42;;;;;;;;;;;;;;;;;;344605;28;102806;-22
2021/11/25 07:41:59;;;;;;;;;;;;;;;;;;346046;28;84671;-22
2021/11/25 07:42:10;;;;;;;;;;;;;;;;;;343315;28;102820;-22
2021/11/25 07:42:22;;;;;;;;;;;;;;;;;;344575;28;85355;-22
2021/11/25 07:42:33;;;;;;;;;;;;;;;;;;343300;28;103448;-22
2021/11/25 07:42:44;;;;;;;;;;;;;;;;;;347312;28;84983;-22
2021/11/25 07:42:55;;;;;;;;;;;;;;;;;;344685;28;102587;-23
2021/11/25 07:43:06;;;;;;;;;;;;;;;;;;348710;27;84346;-23
2021/11/25 07:43:19;;;;;;;;;;;;;;;;;;344655;28;103160;-22
2021/11/25 07:43:30;;;;;;;;;;;;;;;;;;345932;28;84537;-22
2021/11/25 07:43:41;;;;;;;;;;;;;;;;;;344631;28;103018;-22
2021/11/25 07:43:52;;;;;;;;;;;;;;;;;;345965;28;82451;-22
2021/11/25 07:44:03;;;;;;;;;;;;;;;;;;343266;28;103158;-22
2021/11/25 07:44:15;;;;;;;;;;;;;;;;;;348728;27;85485;-22
2021/11/25 07:44:27;;;;;;;;;;;;;;;;;;347400;27;103264;-22
2021/11/25 07:44:38;;;;;;;;;;;;;;;;;;347184;28;86076;-22
2021/11/25 07:44:49;;;;;;;;;;;;;;;;;;343173;28;103032;-22
2021/11/25 07:45:01;;;;;;;;;;;;;;;;;;345803;28;83391;-22
2021/11/25 07:45:12;;;;;;;;;;;;;;;;;;343284;28;102805;-22
2021/11/25 07:45:24;;;;;;;;;;;;;;;;;;347270;28;85308;-22
2021/11/25 07:45:35;;;;;;;;;;;;;;;;;;346045;28;103029;-22
2021/11/25 07:45:46;;;;;;;;;;;;;;;;;;346333;28;81791;-23
2021/11/25 07:45:59;;;;;;;;;;;;;;;;;;344653;28;103066;-23
2021/11/25 07:46:11;;;;;;;;;;;;;;;;;;347338;28;81840;-23
2021/11/25 07:46:21;;;;;;;;;;;;;;;;;;343275;28;103099;-22
2021/11/25 07:46:33;;;;;;;;;;;;;;;;;;345986;28;84505;-22
2021/11/25 07:46:44;;;;;;;;;;;;;;;;;;346026;28;103947;-23
2021/11/25 07:46:55;;;;;;;;;;;;;;;;;;347305;28;83618;-22
2021/11/25 07:47:06;;;;;;;;;;;;;;;;;;344683;28;103180;-23
2021/11/25 07:47:22;;;;;;;;;;;;;;;;;;344680;28;83923;-23
2021/11/25 07:47:34;;;;;;;;;;;;;;;;;;341928;28;103211;-22
2021/11/25 07:47:45;;;;;;;;;;;;;;;;;;343234;28;84690;-22
2021/11/25 07:47:56;;;;;;;;;;;;;;;;;;342951;28;103146;-22
2021/11/25 07:48:07;;;;;;;;;;;;;;;;;;344491;28;84579;-22
2021/11/25 07:48:18;;;;;;;;;;;;;;;;;;343285;28;102787;-22
2021/11/25 07:48:29;;;;;;;;;;;;;;;;;;345700;28;84418;-22
2021/11/25 07:48:41;;;;;;;;;;;;;;;;;;343285;28;102968;-22
2021/11/25 07:48:52;;;;;;;;;;;;;;;;;;345830;28;85309;-22
2021/11/25 07:49:04;;;;;;;;;;;;;;;;;;344633;28;103272;-22
2021/11/25 07:49:16;;;;;;;;;;;;;;;;;;346040;28;85467;-22
2021/11/25 07:49:27;;;;;;;;;;;;;;;;;;347482;27;102908;-22
2021/11/25 07:49:39;;;;;;;;;;;;;;;;;;344330;28;84689;-22
2021/11/25 07:49:50;;;;;;;;;;;;;;;;;;345776;28;102894;-22
2021/11/25 07:50:13;;;;;;;;;;;;;;;;;;347032;28;85683;-22
2021/11/25 07:50:26;;;;;;;;;;;;;;;;;;343464;28;103050;-22
2021/11/25 07:50:38;;;;;;;;;;;;;;;;;;344486;28;85642;-22
2021/11/25 07:50:48;;;;;;;;;;;;;;;;;;341889;28;103207;-22
2021/11/25 07:50:59;;;;;;;;;;;;;;;;;;343159;28;85519;-22
2021/11/25 07:51:10;;;;;;;;;;;;;;;;;;343255;28;102978;-23
2021/11/25 07:51:21;;;;;;;;;;;;;;;;;;345889;28;85585;-22
2021/11/25 07:51:32;;;;;;;;;;;;;;;;;;345972;28;103340;-21
2021/11/25 07:51:43;;;;;;;;;;;;;;;;;;345958;28;84579;-22
2021/11/25 07:51:59;;;;;;;;;;;;;;;;;;347385;27;102988;-22
2021/11/25 07:52:10;;;;;;;;;;;;;;;;;;347312;28;85347;-21
2021/11/25 07:52:21;;;;;;;;;;;;;;;;;;344674;28;102596;-22
2021/11/25 07:52:32;;;;;;;;;;;;;;;;;;343167;28;84758;-22
2021/11/25 07:52:43;;;;;;;;;;;;;;;;;;344513;28;104539;-21
2021/11/25 07:52:55;;;;;;;;;;;;;;;;;;345855;28;84458;-21
2021/11/25 07:53:06;;;;;;;;;;;;;;;;;;344601;28;103249;-22
2021/11/25 07:53:17;;;;;;;;;;;;;;;;;;344493;28;84665;-22
2021/11/25 07:53:28;;;;;;;;;;;;;;;;;;343044;28;102960;-22
2021/11/25 07:53:39;;;;;;;;;;;;;;;;;;348712;27;82918;-21
2021/11/25 07:53:51;;;;;;;;;;;;;;;;;;346031;28;103045;-21
2021/11/25 07:54:07;;;;;;;;;;;;;;;;;;345927;28;85562;-22
2021/11/25 07:54:18;;;;;;;;;;;;;;;;;;346071;28;102878;-20
2021/11/25 07:54:29;;;;;;;;;;;;;;;;;;346947;28;85162;-32
2021/11/25 07:54:40;;;;;;;;;;;;;;;;;;344793;28;101793;-35
2021/11/25 07:54:51;;;;;;;;;;;;;;;;;;347309;28;84133;-28
2021/11/25 07:55:02;;;;;;;;;;;;;;;;;;344875;28;102959;-33
2021/11/25 07:55:14;;;;;;;;;;;;;;;;;;345871;28;85127;-36
2021/11/25 07:55:27;;;;;;;;;;;;;;;;;;343505;28;103099;-43
2021/11/25 07:55:38;;;;;;;;;;;;;;;;;;348254;27;83763;-44
2021/11/25 07:55:49;;;;;;;;;;;;;;;;;;344857;28;103133;-35
2021/11/25 07:55:59;;;;;;;;;;;;;;;;;;345989;28;85035;-37
2021/11/25 07:56:10;;;;;;;;;;;;;;;;;;344771;28;102679;-34
2021/11/25 07:56:22;;;;;;;;;;;;;;;;;;345916;28;85252;-47
2021/11/25 07:56:33;;;;;;;;;;;;;;;;;;343365;28;103121;-51
2021/11/25 07:56:44;;;;;;;;;;;;;;;;;;344650;28;84331;-38
2021/11/25 07:56:57;;;;;;;;;;;;;;;;;;342107;28;102593;-37
2021/11/25 07:57:08;;;;;;;;;;;;;;;;;;347466;28;85441;-45
2021/11/25 07:57:19;;;;;;;;;;;;;;;;;;346192;28;103148;-41
2021/11/25 07:57:30;;;;;;;;;;;;;;;;;;344740;28;83319;-41
2021/11/25 07:57:43;;;;;;;;;;;;;;;;;;347487;27;102999;-33
2021/11/25 07:57:54;;;;;;;;;;;;;;;;;;344841;28;84775;-34
2021/11/25 07:58:05;;;;;;;;;;;;;;;;;;344802;28;102936;-41
2021/11/25 07:58:15;;;;;;;;;;;;;;;;;;344732;28;85340;-35
2021/11/25 07:58:28;;;;;;;;;;;;;;;;;;344588;28;103040;-68
2021/11/25 07:58:39;;;;;;;;;;;;;;;;;;344633;28;85800;-72
2021/11/25 07:58:51;;;;;;;;;;;;;;;;;;344261;28;104691;-70
2021/11/25 07:59:02;;;;;;;;;;;;;;;;;;346394;28;84203;-68
